Aviation Digital Data Service (ADDS)

Output produced by TAFs form (2357 UTC 16 October 2017)
found at http://www.aviationweather.gov/adds/tafs/
 
TAF KDOV 161600Z 1616/1722 34012KT 9999 FEW040 BKN150 QNH3003INS 
     BECMG 1623/1624 35009KT 9999 FEW050 QNH3016INS TX17/1617Z TN04/1711Z